Terminal Aerodrome Forecast
Issued by NWS

Home | Current Version | Previous Version | Text Only | Print | Product List | Glossary On
Versions: 1 2 3 4 5 6 7 8 9 10 11 12 13 14 15 16
000
FTUS44 KTSA 281140
TAFXNA
TAF
KXNA 281140Z 2812/2912 00000KT 4SM BR SCT002 SCT035
      TEMPO 2812/2814 1/4SM FG VV002
     FM281400 VRB03KT P6SM SCT020 SCT040
     FM281800 28007KT P6SM SCT050 SCT250
     FM290200 VRB03KT P6SM BKN050=

USA.gov is the U.S. government's official web portal to all federal, state and local government web resources and services.